Time;durP1;ratioP1;P1;durP2;ratioP2;P2;SDS_P1;SDS_P2;PMS_P1;PMS_P2;Temp;Humidity;BMP_temperature;BMP_pressure;BME280_temperature;BME280_humidity;BME280_pressure;Samples;Min_cycle;Max_cycle;Signal;HPM_P1;HPM_P2
2023/06/02 00:00:44;;;;;;;10.63;3.22;;;;;;;14.19;58.27;102076.69;5115408;28;20020;-61
2023/06/02 00:03:10;;;;;;;8.88;3.25;;;;;;;14.16;59.03;102068.66;5115510;28;20426;-61
2023/06/02 00:05:38;;;;;;;9.48;3.00;;;;;;;14.15;58.59;102071.31;5115467;28;20400;-60
2023/06/02 00:08:04;;;;;;;9.75;3.10;;;;;;;14.14;59.18;102067.75;5115271;28;20042;-61
2023/06/02 00:10:29;;;;;;;10.55;3.28;;;;;;;14.17;58.80;102070.44;5115176;28;20054;-60
2023/06/02 00:12:55;;;;;;;5.90;2.75;;;;;;;14.17;58.62;102069.56;5115269;28;20019;-60
2023/06/02 00:15:20;;;;;;;9.18;3.10;;;;;;;14.16;58.62;102073.97;5115270;28;20028;-61
2023/06/02 00:17:46;;;;;;;8.82;3.13;;;;;;;14.18;58.59;102072.25;5115362;28;20024;-61
2023/06/02 00:20:11;;;;;;;12.40;3.30;;;;;;;14.13;58.37;102065.97;5115181;28;20028;-61
2023/06/02 00:22:41;;;;;;;9.05;3.20;;;;;;;14.10;58.48;102070.34;5114872;28;20028;-61
2023/06/02 00:25:07;;;;;;;13.18;3.28;;;;;;;14.10;58.52;102068.59;5096677;28;20038;-61
2023/06/02 00:27:32;;;;;;;9.50;3.30;;;;;;;14.09;58.24;102071.19;5096580;28;20028;-61
2023/06/02 00:29:58;;;;;;;11.18;3.08;;;;;;;14.01;58.18;102055.16;5114790;28;20469;-61
2023/06/02 00:32:23;;;;;;;9.65;3.00;;;;;;;14.07;58.66;102068.53;5115151;28;20032;-61
2023/06/02 00:34:49;;;;;;;9.57;3.20;;;;;;;14.10;58.40;102068.59;5114963;28;20082;-61
2023/06/02 00:37:14;;;;;;;13.02;3.20;;;;;;;14.01;57.88;102065.78;5114777;28;20465;-60
2023/06/02 00:39:39;;;;;;;12.43;3.08;;;;;;;14.06;58.07;102072.06;5115020;28;20020;-60
2023/06/02 00:42:05;;;;;;;8.77;3.25;;;;;;;14.00;58.01;102066.63;5114668;28;20032;-61
2023/06/02 00:44:31;;;;;;;8.40;3.15;;;;;;;13.99;57.40;102063.06;5114730;28;20358;-61
2023/06/02 00:46:56;;;;;;;10.27;3.78;;;;;;;13.89;57.17;102069.13;5114688;28;20081;-61
2023/06/02 00:49:22;;;;;;;10.18;3.20;;;;;;;13.84;57.21;102062.84;5114656;28;20062;-61
2023/06/02 00:51:49;;;;;;;11.50;3.95;;;;;;;13.64;56.80;102066.91;5114076;28;20036;-62
2023/06/02 00:54:16;;;;;;;8.95;3.80;;;;;;;13.56;56.55;102065.88;5114206;28;20028;-61
2023/06/02 00:56:42;;;;;;;16.55;4.07;;;;;;;13.48;56.91;102063.97;5114669;28;20039;-61
2023/06/02 00:59:08;;;;;;;10.98;3.60;;;;;;;13.41;57.35;102069.16;5114522;28;20042;-60
2023/06/02 01:01:35;;;;;;;12.23;3.75;;;;;;;13.34;56.83;102064.59;5114305;28;20023;-61
2023/06/02 01:04:01;;;;;;;10.23;3.38;;;;;;;13.33;57.02;102066.34;5114365;28;20031;-61
2023/06/02 01:06:34;;;;;;;10.93;3.35;;;;;;;13.31;56.72;102073.38;5113868;28;20027;-60
2023/06/02 01:09:03;;;;;;;12.23;3.72;;;;;;;13.36;56.67;102082.34;5113984;28;20118;-61
2023/06/02 01:11:29;;;;;;;11.88;3.85;;;;;;;13.32;56.94;102067.22;5114083;28;20051;-61
2023/06/02 01:13:55;;;;;;;12.02;3.50;;;;;;;13.31;56.97;102081.34;5114145;28;20062;-60
2023/06/02 01:16:21;;;;;;;13.80;3.20;;;;;;;13.30;57.00;102081.31;5113947;28;20464;-61
2023/06/02 01:18:49;;;;;;;11.10;3.63;;;;;;;13.28;56.69;102076.88;5114117;28;20063;-61
2023/06/02 01:21:21;;;;;;;12.77;3.50;;;;;;;13.17;57.22;102081.03;5113890;28;20444;-60
2023/06/02 01:23:49;;;;;;;14.93;3.78;;;;;;;13.08;57.59;102082.63;5096844;28;20031;-61
2023/06/02 01:26:15;;;;;;;10.35;3.70;;;;;;;13.09;57.60;102079.09;5113730;28;20437;-61
2023/06/02 01:28:41;;;;;;;10.15;3.38;;;;;;;13.03;58.73;102080.78;5113613;28;20019;-60
2023/06/02 01:31:14;;;;;;;13.77;3.67;;;;;;;13.04;58.08;102068.41;5095616;28;20024;-61
2023/06/02 01:33:49;;;;;;;12.15;3.40;;;;;;;13.11;57.79;102069.44;5113744;28;20286;-61
2023/06/02 01:36:18;;;;;;;13.60;3.50;;;;;;;13.10;57.86;102073.81;5114003;28;20031;-60
2023/06/02 01:38:46;;;;;;;14.13;3.55;;;;;;;13.04;58.64;102071.94;5113770;28;20032;-61
2023/06/02 01:41:13;;;;;;;10.00;3.38;;;;;;;13.14;58.47;102069.47;5113664;28;20044;-60
2023/06/02 01:43:39;;;;;;;13.40;3.63;;;;;;;13.20;57.89;102064.28;5113584;28;20028;-60
2023/06/02 01:46:05;;;;;;;12.52;3.97;;;;;;;13.18;57.68;102063.34;5113799;28;20046;-61
2023/06/02 01:48:31;;;;;;;13.10;3.67;;;;;;;13.28;57.83;102060.97;5113722;28;20380;-61
2023/06/02 01:50:56;;;;;;;16.60;3.40;;;;;;;13.36;57.31;102062.84;5095350;28;20488;-61
2023/06/02 01:53:26;;;;;;;14.88;3.53;;;;;;;13.30;57.49;102065.38;5113517;28;20032;-62
2023/06/02 01:55:51;;;;;;;14.13;3.75;;;;;;;13.32;57.58;102061.91;5113536;28;20032;-60
2023/06/02 01:58:16;;;;;;;12.32;3.75;;;;;;;13.35;57.74;102061.06;5113300;28;20046;-60
2023/06/02 02:00:42;;;;;;;11.07;3.42;;;;;;;13.37;57.42;102060.22;5113289;28;20032;-61
2023/06/02 02:03:07;;;;;;;9.18;3.05;;;;;;;13.40;58.04;102062.03;5113282;28;20028;-61
2023/06/02 02:05:33;;;;;;;9.70;3.30;;;;;;;13.45;57.98;102061.28;5113234;28;20024;-61
2023/06/02 02:07:58;;;;;;;10.55;3.22;;;;;;;13.38;58.11;102067.31;5113399;28;20028;-60
2023/06/02 02:10:24;;;;;;;10.73;3.20;;;;;;;13.34;57.51;102064.59;5094926;28;20453;-60
2023/06/02 02:12:49;;;;;;;15.82;3.70;;;;;;;13.39;57.93;102061.13;5113127;28;20472;-60
2023/06/02 02:15:15;;;;;;;19.67;3.83;;;;;;;13.41;57.50;102059.44;5113036;28;20032;-60
2023/06/02 02:17:45;;;;;;;14.50;4.10;;;;;;;13.53;57.44;102069.34;5113118;28;20034;-61
2023/06/02 02:20:19;;;;;;;9.05;3.30;;;;;;;13.53;57.54;102061.38;5113484;28;20019;-60
2023/06/02 02:22:47;;;;;;;11.98;3.30;;;;;;;13.55;57.76;102066.75;5113077;28;20028;-61
2023/06/02 02:25:13;;;;;;;10.48;3.22;;;;;;;13.61;57.88;102064.19;5112948;28;20081;-61
2023/06/02 02:27:39;;;;;;;17.92;3.88;;;;;;;13.53;57.77;102064.97;5094222;28;20027;-61
2023/06/02 02:30:06;;;;;;;11.50;3.72;;;;;;;13.51;57.69;102063.13;5112604;28;20031;-61
2023/06/02 02:32:34;;;;;;;12.35;3.50;;;;;;;13.52;57.96;102059.59;5113070;28;20043;-61
2023/06/02 02:34:59;;;;;;;11.23;3.40;;;;;;;13.57;57.74;102059.69;5113073;28;20020;-60
2023/06/02 02:37:25;;;;;;;13.77;3.58;;;;;;;13.54;57.92;102055.22;5112919;28;20028;-61
2023/06/02 02:39:50;;;;;;;14.68;3.60;;;;;;;13.57;57.45;102059.69;5113029;28;20024;-60
2023/06/02 02:42:15;;;;;;;13.68;3.55;;;;;;;13.57;58.07;102060.56;5112806;28;20034;-61
2023/06/02 02:44:41;;;;;;;12.63;3.63;;;;;;;13.57;58.38;102057.91;5112930;28;20072;-61
2023/06/02 02:47:06;;;;;;;11.52;3.80;;;;;;;13.58;58.11;102054.44;5113030;28;20023;-60
2023/06/02 02:49:32;;;;;;;15.10;3.80;;;;;;;13.52;58.32;102051.63;5094606;28;20060;-61
2023/06/02 02:51:57;;;;;;;13.25;3.58;;;;;;;13.56;58.74;102055.25;5094793;28;20057;-61
2023/06/02 02:54:24;;;;;;;11.38;3.80;;;;;;;13.59;58.69;102055.31;5113036;28;20357;-61
2023/06/02 02:56:50;;;;;;;16.58;4.00;;;;;;;13.68;58.23;102048.41;5112931;28;20038;-61
2023/06/02 02:59:16;;;;;;;11.30;3.20;;;;;;;13.75;58.35;102052.94;5112822;28;20032;-61
2023/06/02 03:01:44;;;;;;;12.00;4.05;;;;;;;13.80;58.40;102046.81;5112705;28;20434;-61
2023/06/02 03:04:21;;;;;;;13.38;3.65;;;;;;;13.76;58.55;102059.16;5094586;28;20507;-61
2023/06/02 03:06:49;;;;;;;13.23;3.83;;;;;;;13.71;58.36;102048.47;5094227;28;20035;-61
2023/06/02 03:09:16;;;;;;;15.18;3.75;;;;;;;13.62;58.84;102055.34;5112542;28;20044;-61
2023/06/02 03:11:42;;;;;;;12.75;3.92;;;;;;;13.52;58.95;102054.28;5112507;28;20433;-61
2023/06/02 03:14:07;;;;;;;16.63;3.63;;;;;;;13.38;59.51;102059.34;5112700;28;20501;-61
2023/06/02 03:16:34;;;;;;;13.10;3.70;;;;;;;13.27;59.36;102060.91;5114782;28;20114;-61
2023/06/02 03:19:02;;;;;;;12.02;3.63;;;;;;;13.24;59.14;102061.75;5116423;28;20177;-60
2023/06/02 03:21:31;;;;;;;10.85;3.30;;;;;;;13.13;59.95;102073.00;5116444;28;20023;-60
2023/06/02 03:24:00;;;;;;;11.82;3.33;;;;;;;13.16;60.35;102073.06;5116477;28;20028;-61
2023/06/02 03:26:26;;;;;;;13.85;3.72;;;;;;;13.07;59.32;102067.56;5116588;28;20031;-60
2023/06/02 03:28:55;;;;;;;15.15;3.60;;;;;;;12.97;59.45;102075.31;5116131;28;20039;-61
2023/06/02 03:31:24;;;;;;;12.98;3.80;;;;;;;13.02;59.45;102072.78;5116399;28;20020;-60
2023/06/02 03:33:49;;;;;;;12.68;3.80;;;;;;;13.07;59.34;102073.78;5116142;28;20023;-60
2023/06/02 03:36:17;;;;;;;14.10;3.80;;;;;;;13.07;58.35;102075.53;5116104;28;20030;-60
2023/06/02 03:38:43;;;;;;;14.48;3.70;;;;;;;13.00;58.63;102074.50;5116058;28;20032;-61
2023/06/02 03:41:08;;;;;;;10.80;3.40;;;;;;;13.07;58.40;102071.13;5116229;28;20027;-61
2023/06/02 03:43:34;;;;;;;11.73;3.80;;;;;;;12.98;59.05;102070.94;5115689;28;20027;-60
2023/06/02 03:45:59;;;;;;;10.20;3.50;;;;;;;13.00;58.71;102082.47;5115841;28;20055;-60
2023/06/02 03:48:24;;;;;;;10.32;3.38;;;;;;;13.07;58.64;102078.19;5115823;28;20024;-60
2023/06/02 03:50:50;;;;;;;13.88;3.70;;;;;;;13.12;58.36;102077.41;5115954;28;20023;-60
2023/06/02 03:53:15;;;;;;;15.57;3.60;;;;;;;13.05;58.28;102072.81;5097357;28;20468;-60
2023/06/02 03:55:40;;;;;;;11.43;3.53;;;;;;;13.09;58.07;102081.75;5115669;28;20140;-60
2023/06/02 03:58:06;;;;;;;14.10;3.92;;;;;;;13.07;58.29;102079.09;5115239;28;20024;-61
2023/06/02 04:00:31;;;;;;;13.45;3.70;;;;;;;13.02;58.75;102075.44;5115550;28;20032;-60
2023/06/02 04:02:57;;;;;;;14.13;3.70;;;;;;;13.03;58.48;102070.16;5115529;28;20043;-60
2023/06/02 04:05:23;;;;;;;9.32;3.15;;;;;;;13.07;59.11;102076.44;5115020;28;20044;-60
2023/06/02 04:07:48;;;;;;;12.35;3.42;;;;;;;13.12;58.68;102084.47;5115227;28;20107;-60
2023/06/02 04:10:14;;;;;;;12.45;3.70;;;;;;;13.05;58.68;102091.41;5115258;28;20044;-60
2023/06/02 04:12:39;;;;;;;11.95;3.55;;;;;;;13.05;58.46;102091.41;5097290;28;20027;-60
2023/06/02 04:15:06;;;;;;;13.77;3.47;;;;;;;13.04;58.62;102084.31;5115300;28;20031;-61
2023/06/02 04:17:32;;;;;;;10.60;3.33;;;;;;;13.05;58.53;102088.75;5115315;28;20027;-61
2023/06/02 04:19:58;;;;;;;8.82;3.33;;;;;;;13.13;58.47;102095.13;5115369;28;20519;-60
2023/06/02 04:22:23;;;;;;;12.52;3.72;;;;;;;13.13;58.62;102095.13;5096972;28;20016;-61
2023/06/02 04:24:49;;;;;;;10.15;3.30;;;;;;;13.14;58.48;102088.03;5115307;28;20024;-60
2023/06/02 04:27:16;;;;;;;10.35;3.35;;;;;;;13.14;57.58;102093.34;5096589;28;20035;-61
2023/06/02 04:29:42;;;;;;;9.70;3.22;;;;;;;13.09;57.29;102092.38;5114825;28;20035;-60
2023/06/02 04:32:08;;;;;;;11.75;3.75;;;;;;;13.03;57.67;102086.06;5115021;28;20476;-60
2023/06/02 04:34:35;;;;;;;15.05;3.90;;;;;;;12.99;58.37;102092.19;5114957;28;20437;-61
2023/06/02 04:37:01;;;;;;;11.88;3.40;;;;;;;12.98;58.62;102085.09;5114974;28;20035;-61
2023/06/02 04:39:26;;;;;;;9.00;3.20;;;;;;;13.00;57.96;102082.47;5115155;28;20098;-60
2023/06/02 04:41:51;;;;;;;9.82;3.10;;;;;;;12.99;58.23;102083.34;5114655;28;20503;-61
2023/06/02 04:44:17;;;;;;;12.65;3.70;;;;;;;12.99;58.66;102086.88;5114854;28;20069;-60
2023/06/02 04:46:43;;;;;;;11.95;3.40;;;;;;;13.05;58.20;102091.41;5114753;28;20024;-61
2023/06/02 04:49:09;;;;;;;11.73;3.58;;;;;;;13.00;58.43;102090.41;5114628;28;20081;-61
2023/06/02 04:51:35;;;;;;;11.60;3.30;;;;;;;12.99;59.00;102088.63;5096624;28;20046;-61
2023/06/02 04:54:01;;;;;;;9.43;3.15;;;;;;;12.97;58.42;102095.66;5114724;28;20023;-62
2023/06/02 04:56:30;;;;;;;10.27;3.30;;;;;;;13.02;58.78;102102.88;5114585;28;20429;-61
2023/06/02 04:58:56;;;;;;;10.30;3.25;;;;;;;13.03;58.01;102091.38;5114153;28;20426;-61
2023/06/02 05:01:21;;;;;;;14.25;3.20;;;;;;;13.03;57.93;102104.66;5114691;28;20024;-60
2023/06/02 05:03:47;;;;;;;12.52;3.10;;;;;;;12.99;57.96;102101.91;5114607;28;20031;-60
2023/06/02 05:06:12;;;;;;;13.43;3.42;;;;;;;12.88;57.92;102109.63;5114097;28;20050;-61
2023/06/02 05:08:37;;;;;;;12.40;3.42;;;;;;;12.89;57.86;102102.56;5095754;28;20028;-61
2023/06/02 05:11:05;;;;;;;17.02;3.25;;;;;;;12.92;59.14;102110.59;5113861;28;20464;-61
2023/06/02 05:13:30;;;;;;;12.15;3.10;;;;;;;12.89;57.94;102116.75;5114067;28;20046;-61
2023/06/02 05:15:56;;;;;;;11.27;3.17;;;;;;;12.94;57.57;102109.78;5096084;28;20107;-60
2023/06/02 05:18:21;;;;;;;11.02;3.03;;;;;;;12.93;57.43;102110.63;5113850;28;20500;-60
2023/06/02 05:20:47;;;;;;;12.25;3.17;;;;;;;12.96;57.69;102118.66;5113946;28;20055;-60
2023/06/02 05:23:12;;;;;;;12.77;3.25;;;;;;;12.90;57.52;102112.31;5113802;28;20085;-61
2023/06/02 05:25:39;;;;;;;9.00;2.72;;;;;;;12.95;57.12;102108.91;5113954;28;20559;-60
2023/06/02 05:28:05;;;;;;;12.60;3.03;;;;;;;13.01;56.94;102111.66;5113486;28;20423;-61
2023/06/02 05:30:31;;;;;;;11.05;3.33;;;;;;;12.96;57.38;102108.03;5095437;28;20080;-60
2023/06/02 05:32:56;;;;;;;13.85;3.25;;;;;;;12.83;56.87;102118.34;5113557;28;20039;-61
2023/06/02 05:35:21;;;;;;;14.90;3.30;;;;;;;12.79;57.05;102112.06;5113526;28;20070;-62
2023/06/02 05:37:47;;;;;;;10.05;2.70;;;;;;;12.78;56.90;102113.84;5095373;28;20019;-61
2023/06/02 05:40:13;;;;;;;12.70;2.75;;;;;;;12.93;57.80;102117.69;5113131;28;20042;-61
2023/06/02 05:42:39;;;;;;;14.43;3.38;;;;;;;12.95;57.03;102115.97;5113533;28;20062;-61
2023/06/02 05:45:05;;;;;;;13.73;3.03;;;;;;;12.90;56.63;102118.53;5095306;28;20035;-60
2023/06/02 05:47:31;;;;;;;11.00;3.08;;;;;;;12.92;57.38;102111.47;5095450;28;20484;-60
2023/06/02 05:49:57;;;;;;;17.38;3.35;;;;;;;12.98;57.07;102113.38;5113123;28;20038;-60
2023/06/02 05:52:22;;;;;;;12.90;3.72;;;;;;;12.94;57.04;102117.72;5113192;28;20395;-60
2023/06/02 05:54:48;;;;;;;14.02;3.10;;;;;;;12.92;57.46;102118.53;5113311;28;20038;-61
2023/06/02 05:57:13;;;;;;;14.85;3.40;;;;;;;12.98;57.07;102119.59;5113265;28;20507;-60
2023/06/02 05:59:39;;;;;;;25.33;3.58;;;;;;;13.10;57.53;102118.94;5113005;28;20073;-61
2023/06/02 06:02:05;;;;;;;73.15;8.00;;;;;;;13.09;57.12;102122.44;5113319;28;20028;-62
2023/06/02 06:04:31;;;;;;;39.67;4.78;;;;;;;12.98;57.53;102122.25;5113023;28;20024;-61
2023/06/02 06:06:58;;;;;;;19.30;3.30;;;;;;;13.03;57.63;102125.88;5113255;28;20030;-61
2023/06/02 06:09:24;;;;;;;15.38;3.58;;;;;;;13.09;56.36;102118.91;5112572;28;20055;-60
2023/06/02 06:11:50;;;;;;;13.85;3.47;;;;;;;13.09;56.26;102117.16;5113198;28;20373;-61
2023/06/02 06:14:16;;;;;;;13.60;3.05;;;;;;;13.09;56.63;102116.25;5112809;28;20443;-60
2023/06/02 06:16:42;;;;;;;13.70;3.42;;;;;;;13.12;56.83;102118.97;5112923;28;20501;-60
2023/06/02 06:19:07;;;;;;;14.82;3.80;;;;;;;13.11;56.45;102112.78;5112772;28;20040;-61
2023/06/02 06:21:33;;;;;;;16.50;3.67;;;;;;;13.09;56.64;102116.25;5112614;28;20023;-61
2023/06/02 06:23:58;;;;;;;27.17;4.10;;;;;;;13.17;57.14;102122.63;5094502;28;20035;-60
2023/06/02 06:26:24;;;;;;;18.65;3.30;;;;;;;13.20;57.54;102117.38;5112907;28;20107;-60
2023/06/02 06:28:49;;;;;;;12.45;3.22;;;;;;;13.26;57.19;102120.19;5112541;28;20055;-60
2023/06/02 06:31:15;;;;;;;15.75;3.55;;;;;;;13.34;57.04;102126.53;5112816;28;20059;-61
2023/06/02 06:33:40;;;;;;;15.10;3.20;;;;;;;13.42;56.19;102127.59;5094657;28;20024;-61
2023/06/02 06:36:06;;;;;;;16.05;3.85;;;;;;;13.48;56.83;102127.69;5112918;28;20426;-61
2023/06/02 06:38:31;;;;;;;16.50;3.60;;;;;;;13.55;55.92;102126.06;5112199;28;20070;-60
2023/06/02 06:40:56;;;;;;;16.17;3.58;;;;;;;13.58;55.84;102130.56;5113211;28;20122;-60
2023/06/02 06:43:22;;;;;;;15.65;3.58;;;;;;;13.62;55.69;102135.03;5112881;28;20542;-60
2023/06/02 06:45:47;;;;;;;15.15;3.22;;;;;;;13.73;54.95;102133.47;5112841;28;20055;-61
2023/06/02 06:48:13;;;;;;;17.05;3.55;;;;;;;13.68;54.32;102128.09;5112916;28;20023;-61
2023/06/02 06:50:38;;;;;;;23.98;3.47;;;;;;;13.65;54.77;102129.78;5113614;28;20045;-61
2023/06/02 06:53:03;;;;;;;20.17;3.28;;;;;;;13.63;54.58;102120.91;5116994;28;20032;-61
2023/06/02 06:55:29;;;;;;;10.30;2.92;;;;;;;13.67;55.28;102126.31;5116332;28;20122;-60
2023/06/02 06:57:55;;;;;;;18.67;3.28;;;;;;;13.79;55.73;102122.97;5116912;28;20024;-60
2023/06/02 07:00:21;;;;;;;16.08;3.63;;;;;;;13.88;55.04;102130.22;5116512;28;20495;-61
2023/06/02 07:02:48;;;;;;;15.23;3.50;;;;;;;13.99;54.65;102118.88;5116767;28;20020;-61
2023/06/02 07:05:15;;;;;;;10.63;3.10;;;;;;;14.14;54.29;102122.69;5116548;28;20036;-60
2023/06/02 07:07:40;;;;;;;25.42;3.90;;;;;;;14.21;53.38;102124.56;5116525;28;20024;-61
2023/06/02 07:10:06;;;;;;;11.38;3.30;;;;;;;14.30;53.41;102122.03;5097925;28;20043;-61
2023/06/02 07:12:32;;;;;;;25.55;4.68;;;;;;;14.32;53.76;102130.06;5116596;28;20023;-60
2023/06/02 07:14:57;;;;;;;16.50;3.50;;;;;;;14.29;52.41;102120.25;5098036;28;20027;-61
2023/06/02 07:17:22;;;;;;;20.80;4.32;;;;;;;14.36;52.85;102123.94;5116728;28;20059;-60
2023/06/02 07:19:48;;;;;;;18.83;3.67;;;;;;;14.42;52.97;102127.56;5116175;28;20594;-60
2023/06/02 07:22:13;;;;;;;23.80;4.65;;;;;;;14.40;52.20;102125.75;5116396;28;20477;-61
2023/06/02 07:24:42;;;;;;;14.57;3.30;;;;;;;14.51;52.86;102137.47;5116496;28;20413;-61
2023/06/02 07:27:07;;;;;;;14.50;3.00;;;;;;;14.60;52.03;102134.06;5116073;28;20107;-61
2023/06/02 07:29:32;;;;;;;14.02;3.72;;;;;;;14.61;52.30;102138.53;5116094;28;20114;-60
2023/06/02 07:31:58;;;;;;;13.73;3.55;;;;;;;14.62;51.73;102137.66;5116443;28;20601;-61
2023/06/02 07:34:23;;;;;;;16.05;3.30;;;;;;;14.70;52.38;102141.31;5097845;28;20483;-60
2023/06/02 07:36:49;;;;;;;11.32;2.90;;;;;;;14.74;53.22;102140.50;5097730;28;20088;-61
2023/06/02 07:39:15;;;;;;;17.95;3.15;;;;;;;14.82;51.67;102148.56;5116111;28;20024;-60
2023/06/02 07:41:40;;;;;;;16.15;3.53;;;;;;;14.85;51.59;102146.84;5116103;28;20099;-60
2023/06/02 07:44:06;;;;;;;14.90;3.38;;;;;;;14.84;51.45;102141.50;5115890;28;20019;-60
2023/06/02 07:46:32;;;;;;;14.30;3.50;;;;;;;14.88;52.28;102143.34;5115992;28;20019;-60
2023/06/02 07:48:57;;;;;;;12.80;3.58;;;;;;;14.92;52.09;102140.75;5115836;28;20031;-61
2023/06/02 07:51:23;;;;;;;13.88;3.25;;;;;;;15.03;51.14;102130.22;5116016;28;20027;-61
2023/06/02 07:53:49;;;;;;;11.45;3.35;;;;;;;15.12;50.24;102124.16;5116031;28;20032;-61
2023/06/02 07:56:14;;;;;;;9.68;2.67;;;;;;;15.23;49.53;102135.81;5115717;28;20542;-61
2023/06/02 07:58:40;;;;;;;10.80;3.28;;;;;;;15.28;49.40;102137.66;5115718;28;20076;-60
2023/06/02 08:01:05;;;;;;;10.48;3.80;;;;;;;15.28;49.39;102124.31;5097234;28;20028;-60
2023/06/02 08:03:30;;;;;;;13.40;3.15;;;;;;;15.36;48.99;102129.75;5115313;28;20027;-60
2023/06/02 08:05:56;;;;;;;12.57;3.17;;;;;;;15.41;49.40;102132.47;5115510;28;20032;-61
2023/06/02 08:08:21;;;;;;;13.18;2.97;;;;;;;15.44;49.67;102128.06;5115464;28;20028;-60
2023/06/02 08:10:47;;;;;;;12.15;3.38;;;;;;;15.55;49.09;102128.22;5097036;28;20050;-61
2023/06/02 08:13:12;;;;;;;19.95;3.15;;;;;;;15.66;49.20;102131.00;5115318;28;20042;-60
2023/06/02 08:15:38;;;;;;;11.65;3.30;;;;;;;15.63;48.11;102129.19;5115056;28;20042;-61
2023/06/02 08:18:03;;;;;;;11.13;2.95;;;;;;;15.72;48.21;102126.66;5115316;28;20035;-61
2023/06/02 08:20:28;;;;;;;15.80;3.22;;;;;;;15.87;48.93;102130.31;5115264;28;20032;-60
2023/06/02 08:22:56;;;;;;;13.95;3.08;;;;;;;15.97;47.60;102130.44;5115229;28;20069;-60
2023/06/02 08:25:21;;;;;;;9.40;2.83;;;;;;;16.07;47.00;102127.84;5115157;28;20057;-61
2023/06/02 08:27:47;;;;;;;10.98;3.35;;;;;;;16.21;48.24;102131.50;5114869;28;20035;-61
2023/06/02 08:30:13;;;;;;;15.18;3.50;;;;;;;16.36;47.86;102128.97;5114933;28;20028;-60
2023/06/02 08:32:38;;;;;;;13.00;3.50;;;;;;;16.49;46.72;102124.63;5096619;28;20431;-61
2023/06/02 08:35:04;;;;;;;13.07;3.00;;;;;;;16.81;46.16;102134.63;5114931;28;20061;-60
2023/06/02 08:37:31;;;;;;;10.48;3.00;;;;;;;17.17;45.24;102137.50;5114905;28;20489;-60
2023/06/02 08:39:57;;;;;;;11.90;3.22;;;;;;;17.20;44.23;102129.47;5114969;28;20039;-60
2023/06/02 08:42:26;;;;;;;11.20;3.08;;;;;;;17.20;43.64;102125.91;5096644;28;20028;-60
2023/06/02 08:44:51;;;;;;;14.10;3.15;;;;;;;17.48;43.85;102126.91;5115023;28;20032;-61
2023/06/02 08:47:22;;;;;;;15.57;3.25;;;;;;;17.90;43.64;102131.50;5114686;28;20020;-61
2023/06/02 08:49:47;;;;;;;13.98;3.42;;;;;;;18.33;43.22;102118.13;5114827;28;20032;-59
2023/06/02 08:52:20;;;;;;;10.88;3.00;;;;;;;18.71;41.48;102122.50;5114750;28;20026;-61
2023/06/02 08:54:47;;;;;;;12.75;3.40;;;;;;;18.94;40.78;102119.78;5114889;28;20102;-63
2023/06/02 08:57:16;;;;;;;9.43;3.22;;;;;;;18.99;40.61;102117.97;5114478;28;20077;-60
2023/06/02 08:59:44;;;;;;;12.32;3.05;;;;;;;18.99;40.41;102120.66;5114013;28;20031;-62
2023/06/02 09:02:10;;;;;;;17.02;3.42;;;;;;;18.96;40.56;102120.66;5114655;28;20111;-61
2023/06/02 09:04:36;;;;;;;12.70;3.20;;;;;;;18.72;40.13;102124.31;5114610;28;20055;-61
2023/06/02 09:07:13;;;;;;;12.75;3.50;;;;;;;18.63;41.72;102116.25;5114295;28;20094;-61
2023/06/02 09:09:40;;;;;;;12.38;3.53;;;;;;;18.53;40.54;102129.66;5114013;28;20142;-60
2023/06/02 09:12:08;;;;;;;15.55;4.00;;;;;;;18.56;41.12;102128.78;5114184;28;20065;-61
2023/06/02 09:14:35;;;;;;;16.58;3.47;;;;;;;18.58;41.80;102126.09;5113366;28;20063;-60
2023/06/02 09:17:01;;;;;;;13.52;3.50;;;;;;;18.88;40.88;102107.28;5114176;28;20488;-60
2023/06/02 09:19:47;;;;;;;12.02;3.47;;;;;;;19.07;41.32;102118.84;5114255;28;20031;-61
2023/06/02 09:22:12;;;;;;;8.73;2.97;;;;;;;18.93;39.81;102123.38;5113712;28;20028;-60
2023/06/02 09:24:37;;;;;;;13.25;3.30;;;;;;;19.19;39.04;102112.53;5113852;28;20034;-60
2023/06/02 09:27:03;;;;;;;12.63;3.47;;;;;;;19.51;39.25;102107.00;5113797;28;20071;-60
2023/06/02 09:29:28;;;;;;;15.27;3.63;;;;;;;19.83;38.85;102109.50;5113410;28;20038;-60
2023/06/02 09:31:58;;;;;;;11.52;3.67;;;;;;;20.00;39.70;102115.63;5113974;28;20028;-61
2023/06/02 09:34:32;;;;;;;10.98;3.42;;;;;;;20.27;37.89;102110.94;5113861;28;20103;-61
2023/06/02 09:37:09;;;;;;;11.65;4.38;;;;;;;20.63;37.21;102109.69;5113806;28;20024;-60
2023/06/02 09:39:43;;;;;;;10.95;3.22;;;;;;;20.65;37.10;102117.75;5113710;28;20034;-60
2023/06/02 09:42:11;;;;;;;10.75;3.60;;;;;;;20.86;36.43;102112.13;5113816;28;20083;-60
2023/06/02 09:44:37;;;;;;;14.38;3.55;;;;;;;20.94;35.68;102103.97;5113476;28;20028;-61
2023/06/02 09:47:18;;;;;;;9.85;3.03;;;;;;;21.19;36.91;102104.53;5113518;28;20020;-60
2023/06/02 09:49:44;;;;;;;13.55;3.60;;;;;;;21.36;36.23;102099.84;5113337;28;20053;-60
2023/06/02 09:52:14;;;;;;;10.48;3.15;;;;;;;21.34;35.81;102098.13;5095209;28;20023;-60
2023/06/02 09:54:42;;;;;;;11.98;3.42;;;;;;;21.27;35.72;102103.53;5113669;28;20444;-60
2023/06/02 09:57:09;;;;;;;12.88;3.47;;;;;;;21.49;35.16;102100.56;5113363;28;20059;-60
2023/06/02 09:59:36;;;;;;;9.90;3.10;;;;;;;21.47;35.90;102097.91;5113154;28;20024;-59
2023/06/02 10:02:02;;;;;;;11.07;3.47;;;;;;;21.66;35.18;102098.53;5113319;28;20019;-60
2023/06/02 10:04:27;;;;;;;18.40;3.70;;;;;;;21.36;36.81;102096.28;5113425;28;20330;-60
2023/06/02 10:07:36;;;;;;;11.60;3.88;;;;;;;21.44;38.41;102095.25;5113163;28;20435;-59
2023/06/02 10:10:25;;;;;;;12.27;3.50;;;;;;;21.50;36.90;102102.38;5112593;28;20042;-61
2023/06/02 10:13:17;;;;;;;10.90;3.60;;;;;;;21.38;36.72;102094.47;5113433;28;20073;-61
2023/06/02 10:15:57;;;;;;;19.75;3.78;;;;;;;21.17;37.79;102088.44;5096378;28;20028;-61
2023/06/02 10:19:00;;;;;;;10.40;3.50;;;;;;;21.66;37.71;102086.88;5096519;28;20051;-61
2023/06/02 10:21:34;;;;;;;11.55;3.53;;;;;;;21.62;36.94;102085.13;5098206;28;20032;-61
2023/06/02 10:24:21;;;;;;;14.10;3.40;;;;;;;21.56;36.51;102090.63;5113246;28;20438;-61
2023/06/02 10:27:17;;;;;;;13.95;3.88;;;;;;;21.99;36.97;102089.03;5117703;28;20027;-61
2023/06/02 10:29:45;;;;;;;13.63;3.70;;;;;;;22.23;36.31;102092.25;5117191;28;20035;-61
2023/06/02 10:32:24;;;;;;;14.07;3.50;;;;;;;22.51;35.64;102098.00;5117187;28;20038;-61
2023/06/02 10:34:55;;;;;;;13.45;3.90;;;;;;;22.50;35.69;102088.16;5117674;28;20499;-61
2023/06/02 10:37:22;;;;;;;13.93;3.70;;;;;;;22.63;35.68;102094.19;5117282;28;20024;-61
2023/06/02 10:39:51;;;;;;;12.77;3.50;;;;;;;22.52;35.20;102093.50;5117436;28;20027;-61
2023/06/02 10:42:18;;;;;;;11.60;3.63;;;;;;;22.12;35.74;102088.81;5117351;28;20074;-61
2023/06/02 10:44:43;;;;;;;12.93;3.50;;;;;;;22.10;35.80;102088.84;5117371;28;20034;-61
2023/06/02 10:47:18;;;;;;;10.45;3.78;;;;;;;22.17;36.33;102086.97;5117211;28;20376;-61
2023/06/02 10:49:53;;;;;;;8.38;3.30;;;;;;;22.28;36.88;102086.78;5098725;28;20501;-61
2023/06/02 10:52:19;;;;;;;9.60;3.45;;;;;;;22.31;36.35;102081.31;5116826;28;20055;-61
2023/06/02 10:54:45;;;;;;;9.13;3.65;;;;;;;22.58;36.30;102082.63;5117139;28;20062;-61
2023/06/02 10:57:12;;;;;;;10.73;3.35;;;;;;;22.78;37.14;102082.22;5116741;28;20481;-61
2023/06/02 10:59:38;;;;;;;12.80;3.67;;;;;;;22.62;35.65;102089.75;5098842;28;20421;-61
2023/06/02 11:02:04;;;;;;;11.38;3.65;;;;;;;22.41;36.47;102094.59;5117037;28;20468;-62
2023/06/02 11:04:34;;;;;;;10.10;3.75;;;;;;;22.34;36.81;102092.94;5117098;28;20028;-61
2023/06/02 11:07:28;;;;;;;12.25;3.92;;;;;;;22.64;36.88;102095.97;5114696;28;20047;-61
2023/06/02 11:09:58;;;;;;;10.50;3.80;;;;;;;22.98;35.50;102085.44;5115901;28;20055;-61
2023/06/02 11:12:54;;;;;;;13.25;3.70;;;;;;;23.31;35.93;102080.22;5116750;28;20040;-60
2023/06/02 11:15:20;;;;;;;15.77;3.83;;;;;;;23.22;35.22;102089.41;5115282;28;20027;-61
2023/06/02 11:17:48;;;;;;;14.43;4.00;;;;;;;23.07;35.66;102089.72;5116562;28;20061;-61
2023/06/02 11:20:15;;;;;;;11.82;3.90;;;;;;;22.96;37.67;102082.78;5116575;28;20153;-61